Flight Track Log - Related Links

Times and Time Zones

All times are in EDT time to prevent confusion due to time zone crossing. See the N929DE flight status page for this flight to view local times or setup timezone preferences in your user account.

Time Position Orientation Groundspeed Altitude Reporting Facility
EDT Latitude Longitude Course Direction KTS MPH feet Rate Location/Type
Sun 05:50:11 PM 47.1192 -92.5869 178° South 180 207 7,500  Level Minneapolis Center
Sun 05:51:13 PM 47.0700 -92.5844 178° South 178 205 7,500 48 Level Minneapolis Center
Sun 05:52:15 PM 47.0131 -92.5836 179° South 174 200 7,600 48 Climbing Minneapolis Center
Sun 05:53:17 PM 46.9642 -92.5808 178° South 174 200 7,600  Level Minneapolis Center
Sun 05:54:19 PM 46.9153 -92.5803 180° South 175 201 7,600  Level Minneapolis Center
Sun 05:55:21 PM 46.8669 -92.5778 178° South 175 201 7,600  Level Minneapolis Center
Sun 05:56:23 PM 46.8186 -92.5744 177° South 175 201 7,600 -48 Level Minneapolis Center
Sun 05:57:25 PM 46.7703 -92.5731 179° South 174 200 7,500 -48 Descending Minneapolis Center
Sun 05:58:27 PM 46.7233 -92.5722 179° South 172 198 7,500  Level Minneapolis Center
Sun 05:59:28 PM 46.6639 -92.5686 178° South 175 201 7,500  Level Minneapolis Center
Sun 06:00:30 PM 46.6158 -92.5650 177° South 174 200 7,500  Level Minneapolis Center
Sun 06:01:32 PM 46.5675 -92.5639 179° South 174 200 7,500  Level Minneapolis Center
Sun 06:02:35 PM 46.5189 -92.5625 179° South 174 200 7,500 48 Level Minneapolis Center
Sun 06:03:36 PM 46.4708 -92.5611 179° South 174 200 7,600 49 Climbing Minneapolis Center
Sun 06:04:38 PM 46.4236 -92.5575 177° South 172 198 7,600  Level Minneapolis Center
Sun 06:05:40 PM 46.3656 -92.5522 176° South 174 200 7,600  Level Minneapolis Center
Sun 06:06:42 PM 46.3178 -92.5494 178° South 173 199 7,600  Level Minneapolis Center
Sun 06:07:44 PM 46.2697 -92.5503 181° South 173 199 7,600  Level Minneapolis Center
Sun 06:08:46 PM 46.2225 -92.5483 178° South 171 197 7,600  Level Minneapolis Center
Sun 06:09:48 PM 46.1722 -92.5453 178° South 172 198 7,600  Level Minneapolis Center
Sun 06:10:50 PM 46.1253 -92.5433 178° South 171 197 7,600  Level Minneapolis Center
Sun 06:11:52 PM 46.0781 -92.5419 179° South 170 196 7,600  Level Minneapolis Center
Sun 06:12:54 PM 46.0306 -92.5389 177° South 171 197 7,600  Level Minneapolis Center
Sun 06:13:56 PM 45.9728 -92.5358 178° South 171 197 7,600  Level Minneapolis Center
Sun 06:14:57 PM 45.9244 -92.5344 179° South 174 200 7,600  Level Minneapolis Center
Sun 06:15:59 PM 45.8767 -92.5344 180° South 173 199 7,600  Level Minneapolis Center
Sun 06:17:01 PM 45.8286 -92.5303 177° South 173 199 7,600  Level Minneapolis Center
Sun 06:18:03 PM 45.7806 -92.5283 178° South 174 200 7,600 -48 Level Minneapolis Center
Sun 06:19:05 PM 45.7322 -92.5294 181° South 173 199 7,500 -48 Descending Minneapolis Center
Sun 06:20:07 PM 45.6753 -92.5269 178° South 171 197 7,500  Level Minneapolis Center
Sun 06:21:09 PM 45.6267 -92.5253 179° South 175 201 7,500  Level Minneapolis Center
Sun 06:22:11 PM 45.5778 -92.5231 178° South 176 203 7,500 48 Level Minneapolis Center
Sun 06:23:13 PM 45.5289 -92.5203 178° South 176 203 7,600 48 Climbing Minneapolis Center
Sun 06:24:15 PM 45.4800 -92.5131 174° South 176 203 7,600  Level Minneapolis Center
Sun 06:25:17 PM 45.4306 -92.5047 173° South 178 205 7,600  Level Minneapolis Center
Sun 06:26:19 PM 45.3725 -92.5058 181° South 175 201 7,600  Level Minneapolis Center
Sun 06:27:21 PM 45.3233 -92.5056 180° South 175 201 7,600  Level Minneapolis Center
Sun 06:28:23 PM 45.2747 -92.5006 176° South 175 201 7,600  Level Minneapolis Center
Sun 06:29:25 PM 45.2256 -92.5000 180° South 176 203 7,600  Level Minneapolis Center
Sun 06:30:27 PM 45.1764 -92.4997 180° South 176 203 7,600  Level Minneapolis Center
Sun 06:31:29 PM 45.1272 -92.4956 177° South 177 204 7,600 -48 Level Minneapolis Center
Sun 06:32:31 PM 45.0681 -92.4939 179° South 177 204 7,500 -48 Descending Minneapolis Center
Sun 06:33:34 PM 45.0189 -92.4928 179° South 176 203 7,500  Level Minneapolis Center
Sun 06:34:36 PM 44.9694 -92.4903 178° South 177 204 7,500  Level Minneapolis Center
Sun 06:35:38 PM 44.9206 -92.4886 179° South 177 204 7,500 48 Level Minneapolis Center
Sun 06:36:40 PM 44.8708 -92.4856 178° South 178 205 7,600 48 Climbing Minneapolis Center
Sun 06:37:42 PM 44.8214 -92.4850 180° South 177 204 7,600 -48 Level Minneapolis Center
Sun 06:38:44 PM 44.7714 -92.4831 178° South 179 206 7,500 -48 Descending Minneapolis Center
Sun 06:39:46 PM 44.7111 -92.4797 178° South 181 208 7,500  Level Minneapolis Center
Sun 06:40:48 PM 44.6606 -92.4778 178° South 181 208 7,500  Level Minneapolis Center
Sun 06:41:50 PM 44.6092 -92.4772 180° South 183 211 7,500  Level Minneapolis Center
Sun 06:42:52 PM 44.5578 -92.4736 177° South 184 212 7,500  Level Minneapolis Center
Sun 06:43:54 PM 44.5064 -92.4714 178° South 185 213 7,500  Level Minneapolis Center
Sun 06:44:56 PM 44.4547 -92.4719 180° South 185 213 7,500  Level Minneapolis Center
Sun 06:45:58 PM 44.4031 -92.4689 178° South 186 214 7,500  Level Minneapolis Center
Sun 06:47:00 PM 44.3397 -92.4642 177° South 185 213 7,500  Level Minneapolis Center
Sun 06:48:02 PM 44.2872 -92.4650 181° South 186 214 7,500  Level Minneapolis Center
Sun 06:49:04 PM 44.2306 -92.4619 178° South 187 215 7,500  Level Minneapolis Center
Sun 06:50:06 PM 44.1803 -92.4608 179° South 184 212 7,500  Level Minneapolis Center
Sun 06:51:08 PM 44.1233 -92.4592 179° South 191 220 7,500  Level Minneapolis Center
Sun 06:52:10 PM 44.0719 -92.4567 178° South 187 215 7,500  Level Minneapolis Center
Sun 06:53:12 PM 44.0158 -92.4556 179° South 188 216 7,500  Level Minneapolis Center
Sun 06:54:15 PM 43.9644 -92.4533 178° South 187 215 7,500  Level Minneapolis Center
Sun 06:55:17 PM 43.9083 -92.4511 178° South 185 213 7,500  Level Minneapolis Center
Sun 06:56:19 PM 43.8561 -92.4489 178° South 188 216 7,500  Level Minneapolis Center
Sun 06:57:21 PM 43.8006 -92.4472 179° South 187 215 7,500  Level Minneapolis Center
Sun 06:58:23 PM 43.7494 -92.4450 178° South 185 213 7,500  Level Minneapolis Center
Sun 06:59:25 PM 43.6944 -92.4431 179° South 185 213 7,500  Level Minneapolis Center
Sun 07:00:29 PM 43.6389 -92.4414 179° South 186 214 7,500  Level Minneapolis Center
Sun 07:01:31 PM 43.5886 -92.4389 178° South 183 211 7,500  Level Minneapolis Center
Sun 07:02:33 PM 43.5336 -92.4364 178° South 184 212 7,500  Level Minneapolis Center
Sun 07:03:35 PM 43.4817 -92.4350 179° South 187 215 7,500  Level Minneapolis Center
Sun 07:04:37 PM 43.4272 -92.4325 178° South 183 211 7,500  Level Minneapolis Center
Sun 07:05:39 PM 43.3753 -92.4308 179° South 189 217 7,500 -145 Level Minneapolis Center
Sun 07:06:41 PM 43.3186 -92.4286 178° South 191 220 7,200 -339 Descending Minneapolis Center
Sun 07:07:43 PM 43.2625 -92.4258 178° South 201 231 6,800 -387 Descending Minneapolis Center
Sun 07:08:45 PM 43.2061 -92.4256 180° South 203 234 6,400 -435 Descending Minneapolis Center
Sun 07:09:47 PM 43.1489 -92.4231 178° South 205 236 5,900 -466 Descending Minneapolis Center
Sun 07:10:41 PM 43.0908 -92.4219 179° South 203 234 5,500 -466 Descending Chicago Center
Sun 07:11:43 PM 43.0375 -92.4200 178° South 200 230 5,000 -532 Descending Chicago Center
Sun 07:12:45 PM 42.9861 -92.4150 176° South 194 223 4,400 -581 Descending Chicago Center
Sun 07:13:47 PM 42.9364 -92.4153 180° South 188 216 3,800 -387 Descending Chicago Center
Sun 07:14:49 PM 42.8756 -92.4117 178° South 186 214 3,600 -96 Descending Chicago Center
Sun 07:15:52 PM 42.8297 -92.4106 179° South 178 205 3,600 -192 Level Chicago Center
Sun 07:16:54 PM 42.7889 -92.4072 177° South 165 190 3,200 -387 Descending Chicago Center
Sun 07:17:56 PM 42.7475 -92.4064 179° South 157 181 2,800 -242 Descending Chicago Center
Sun 07:18:58 PM 42.7075 -92.4053 179° South 152 175 2,700 -290 Descending Chicago Center
Sun 07:20:00 PM 42.6617 -92.4103 185° South 157 181 2,200 -242 Descending Chicago Center
Sun 07:21:02 PM 42.6306 -92.4392 214° Southwest 148 170 2,200 -145 Level Chicago Center
Sun 07:22:04 PM 42.5994 -92.4581 204° Southwest 139 160 1,900 -290 Descending Chicago Center
Sun 07:23:06 PM 42.5747 -92.4325 143° Southeast 127 146 1,600 -290 Descending Chicago Center

Login

Don't have an account? Register now (free) for customized features, flight alerts, and more!